createdAt,value
2022-08-16T00:01:26.458Z,7.80
2022-08-16T00:03:57.104Z,8.63
2022-08-16T00:06:27.343Z,8.27
2022-08-16T00:08:55.484Z,7.40
2022-08-16T00:11:23.754Z,8.05
2022-08-16T00:13:52.422Z,7.18
2022-08-16T00:17:06.561Z,7.70
2022-08-16T00:19:13.577Z,7.40
2022-08-16T00:21:44.341Z,8.75
2022-08-16T00:24:13.361Z,8.80
2022-08-16T00:26:59.638Z,8.05
2022-08-16T00:29:29.686Z,10.93
2022-08-16T00:32:00.112Z,7.50
2022-08-16T00:34:43.196Z,8.55
2022-08-16T00:37:24.302Z,7.53
2022-08-16T00:39:57.370Z,8.40
2022-08-16T00:42:29.786Z,8.00
2022-08-16T00:45:08.677Z,8.40
2022-08-16T00:47:49.508Z,7.22
2022-08-16T00:50:20.335Z,9.07
2022-08-16T00:52:51.032Z,9.13
2022-08-16T00:55:22.598Z,8.70
2022-08-16T00:57:58.761Z,7.95
2022-08-16T01:00:30.025Z,7.80
2022-08-16T01:03:01.110Z,7.60
2022-08-16T01:05:29.843Z,7.40
2022-08-16T01:07:59.789Z,7.85
2022-08-16T01:10:32.653Z,7.28
2022-08-16T01:13:06.169Z,7.88
2022-08-16T01:15:35.257Z,7.57
2022-08-16T01:18:06.018Z,7.57
2022-08-16T01:20:39.095Z,7.32
2022-08-16T01:23:17.813Z,7.93
2022-08-16T01:25:59.827Z,8.02
2022-08-16T01:28:30.784Z,8.27
2022-08-16T01:31:00.940Z,7.88
2022-08-16T01:33:33.494Z,7.90
2022-08-16T01:36:09.551Z,6.78
2022-08-16T01:38:48.979Z,7.40
2022-08-16T01:41:25.912Z,7.53
2022-08-16T01:44:01.108Z,6.93
2022-08-16T01:46:39.661Z,8.45
2022-08-16T01:49:12.878Z,9.13
2022-08-16T01:51:45.150Z,7.50
2022-08-16T01:54:15.346Z,8.60
2022-08-16T01:56:45.435Z,8.35
2022-08-16T01:59:16.962Z,9.88
2022-08-16T02:01:49.791Z,8.38
2022-08-16T02:04:48.628Z,8.02
2022-08-16T02:07:11.421Z,7.30
2022-08-16T02:09:40.956Z,8.60
2022-08-16T02:12:49.769Z,7.53
2022-08-16T02:15:00.393Z,7.75
2022-08-16T02:17:29.281Z,9.65
2022-08-16T02:20:00.521Z,8.38
2022-08-16T02:22:34.124Z,8.05
2022-08-16T02:25:10.605Z,8.50
2022-08-16T02:27:41.566Z,8.35
2022-08-16T02:30:37.229Z,8.38
2022-08-16T02:33:03.898Z,7.63
2022-08-16T02:35:32.965Z,8.43
2022-08-16T02:38:08.913Z,11.07
2022-08-16T02:40:37.966Z,10.10
2022-08-16T02:43:08.165Z,8.35
2022-08-16T02:45:36.214Z,9.20
2022-08-16T02:48:28.969Z,9.13
2022-08-16T02:51:06.004Z,8.05
2022-08-16T02:53:37.087Z,8.32
2022-08-16T02:56:09.933Z,8.50
2022-08-16T02:58:39.621Z,9.13
2022-08-16T03:01:12.667Z,9.43
2022-08-16T03:04:39.254Z,9.00
2022-08-16T03:06:42.156Z,9.85
2022-08-16T03:09:14.753Z,8.70
2022-08-16T03:11:43.326Z,8.65
2022-08-16T03:14:13.214Z,8.00
2022-08-16T03:16:42.368Z,8.43
2022-08-16T03:19:47.241Z,8.70
2022-08-16T03:22:18.880Z,8.80
2022-08-16T03:24:57.267Z,8.95
2022-08-16T03:27:30.950Z,9.38
2022-08-16T03:30:02.564Z,9.85
2022-08-16T03:32:47.342Z,9.88
2022-08-16T03:35:17.866Z,10.73
2022-08-16T03:38:01.397Z,10.82
2022-08-16T03:40:33.280Z,10.52
2022-08-16T03:43:20.345Z,9.10
2022-08-16T03:45:53.398Z,9.53
2022-08-16T03:48:40.427Z,8.30
2022-08-16T03:51:12.976Z,9.10
2022-08-16T03:53:41.809Z,10.63
2022-08-16T03:56:20.762Z,9.10
2022-08-16T03:58:50.949Z,9.82
2022-08-16T04:01:22.482Z,8.43
2022-08-16T04:03:51.210Z,10.10
2022-08-16T04:06:21.871Z,8.57
2022-08-16T04:08:49.896Z,8.00
2022-08-16T04:11:19.525Z,12.30
2022-08-16T04:14:00.265Z,8.90
2022-08-16T04:16:38.098Z,9.27
2022-08-16T04:19:06.146Z,10.30
2022-08-16T04:21:46.098Z,8.80
2022-08-16T04:24:16.127Z,10.13
2022-08-16T04:26:46.338Z,9.07
2022-08-16T04:29:24.562Z,11.37
2022-08-16T04:31:56.185Z,9.00
2022-08-16T04:34:27.458Z,10.63
2022-08-16T04:36:56.692Z,9.00
2022-08-16T04:39:44.932Z,9.45
2022-08-16T04:42:13.603Z,9.43
2022-08-16T04:44:57.509Z,9.60
2022-08-16T04:47:35.580Z,12.80
2022-08-16T04:50:05.019Z,9.95
2022-08-16T04:52:35.851Z,11.98
2022-08-16T04:55:07.923Z,8.15
2022-08-16T04:57:37.026Z,7.97
2022-08-16T05:00:32.118Z,7.55
2022-08-16T05:03:02.721Z,9.57
2022-08-16T05:05:44.929Z,8.25
2022-08-16T05:08:29.400Z,8.82
2022-08-16T05:11:00.690Z,8.48
2022-08-16T05:13:41.338Z,8.95
2022-08-16T05:16:19.927Z,11.02
2022-08-16T05:18:52.256Z,7.30
2022-08-16T05:21:22.122Z,7.32
2022-08-16T05:23:51.560Z,9.13
2022-08-16T05:26:24.954Z,7.80
2022-08-16T05:28:56.684Z,7.43
2022-08-16T05:31:29.576Z,7.57
2022-08-16T05:34:01.171Z,7.13
2022-08-16T05:36:33.778Z,8.43
2022-08-16T05:39:06.043Z,8.68
2022-08-16T05:41:34.159Z,8.30
2022-08-16T05:44:23.804Z,8.73
2022-08-16T05:46:54.588Z,9.68
2022-08-16T05:49:25.140Z,12.18
2022-08-16T05:51:55.486Z,11.25
2022-08-16T05:54:26.091Z,9.95
2022-08-16T05:56:55.805Z,13.52
2022-08-16T05:59:24.511Z,9.77
2022-08-16T06:01:55.154Z,11.30
2022-08-16T06:04:35.138Z,11.68
2022-08-16T06:07:08.878Z,11.20
2022-08-16T06:09:52.596Z,11.45
2022-08-16T06:12:26.835Z,12.80
2022-08-16T06:14:58.742Z,12.00
2022-08-16T06:17:42.972Z,13.45
2022-08-16T06:20:18.435Z,12.68
2022-08-16T06:22:58.482Z,12.55
2022-08-16T06:25:36.321Z,11.10
2022-08-16T06:28:09.559Z,11.10
2022-08-16T06:30:43.617Z,11.20
2022-08-16T06:33:19.914Z,12.05
2022-08-16T06:35:55.116Z,11.38
2022-08-16T06:38:32.355Z,11.82
2022-08-16T06:41:04.171Z,12.02
2022-08-16T06:43:32.390Z,12.10
2022-08-16T06:46:03.878Z,12.35
2022-08-16T06:48:33.752Z,11.88
2022-08-16T06:51:04.560Z,11.63
2022-08-16T06:53:36.471Z,12.27
2022-08-16T06:56:14.728Z,11.55
2022-08-16T06:58:52.478Z,12.40
2022-08-16T07:01:43.245Z,10.10
2022-08-16T07:04:10.449Z,12.23
2022-08-16T07:06:43.219Z,10.45
2022-08-16T07:09:12.579Z,11.18
2022-08-16T07:11:48.238Z,11.80
2022-08-16T07:14:23.804Z,10.98
2022-08-16T07:16:55.751Z,16.75
2022-08-16T07:20:01.867Z,11.80
2022-08-16T07:22:37.811Z,10.95
2022-08-16T07:25:06.819Z,10.52
2022-08-16T07:27:37.293Z,11.63
2022-08-16T07:30:39.342Z,10.50
2022-08-16T07:32:57.215Z,11.02
2022-08-16T07:35:26.173Z,9.05
2022-08-16T07:37:55.630Z,10.27
2022-08-16T07:40:49.004Z,10.90
2022-08-16T07:43:12.067Z,11.15
2022-08-16T07:45:43.098Z,12.48
2022-08-16T07:48:12.418Z,11.20
2022-08-16T07:50:55.673Z,10.85
2022-08-16T07:53:28.997Z,11.73
2022-08-16T07:55:57.528Z,10.95
2022-08-16T07:58:34.153Z,10.82
2022-08-16T08:01:10.377Z,10.20
2022-08-16T08:03:42.578Z,10.23
2022-08-16T08:06:13.419Z,8.95
2022-08-16T08:08:50.424Z,10.02
2022-08-16T08:11:21.372Z,11.32
2022-08-16T08:13:50.931Z,10.18
2022-08-16T08:16:21.310Z,10.20
2022-08-16T08:18:55.838Z,10.93
2022-08-16T08:21:26.396Z,10.18
2022-08-16T08:23:58.144Z,10.98
2022-08-16T08:26:26.307Z,9.38
2022-08-16T08:29:00.814Z,10.30
2022-08-16T08:31:29.925Z,9.38
2022-08-16T08:33:59.961Z,10.88
2022-08-16T08:36:33.197Z,12.10
2022-08-16T08:39:03.952Z,10.20
2022-08-16T08:41:42.443Z,9.00
2022-08-16T08:44:28.007Z,8.85
2022-08-16T08:47:00.036Z,7.97
2022-08-16T08:49:46.437Z,9.93
2022-08-16T08:52:34.404Z,10.02
2022-08-16T08:55:09.058Z,10.18
2022-08-16T08:57:40.757Z,9.65
2022-08-16T09:00:13.453Z,10.07
2022-08-16T09:02:44.388Z,9.13
2022-08-16T09:05:15.338Z,8.30
2022-08-16T09:07:54.714Z,11.10
2022-08-16T09:10:30.557Z,9.88
2022-08-16T09:12:58.976Z,8.90
2022-08-16T09:15:32.836Z,9.75
2022-08-16T09:18:25.114Z,8.77
2022-08-16T09:20:58.508Z,7.90
2022-08-16T09:23:29.537Z,9.10
2022-08-16T09:25:59.129Z,11.13
2022-08-16T09:29:13.643Z,10.05
2022-08-16T09:31:17.697Z,9.77
2022-08-16T09:33:51.872Z,8.43
2022-08-16T09:36:32.169Z,8.38
2022-08-16T09:39:02.434Z,6.35
2022-08-16T09:41:32.666Z,6.00
2022-08-16T09:45:09.478Z,7.80
2022-08-16T09:46:57.445Z,7.05
2022-08-16T09:49:36.926Z,7.10
2022-08-16T09:52:06.162Z,9.18
2022-08-16T09:54:37.905Z,6.78
2022-08-16T09:57:12.282Z,7.00
2022-08-16T09:59:42.162Z,6.20
2022-08-16T10:02:26.938Z,5.93
2022-08-16T10:04:57.466Z,7.95
2022-08-16T10:07:26.129Z,6.47
2022-08-16T10:10:11.182Z,5.68
2022-08-16T10:12:58.347Z,6.60
2022-08-16T10:15:30.270Z,6.18
2022-08-16T10:18:02.508Z,5.25
2022-08-16T10:20:49.819Z,5.78
2022-08-16T10:23:18.068Z,5.38
2022-08-16T10:27:16.553Z,5.57
2022-08-16T10:28:40.190Z,5.35
2022-08-16T10:31:14.435Z,5.70
2022-08-16T10:33:45.250Z,6.10
2022-08-16T10:36:39.236Z,5.60
2022-08-16T10:39:02.939Z,5.28
2022-08-16T10:41:32.550Z,5.03
2022-08-16T10:44:02.279Z,5.05
2022-08-16T10:46:39.208Z,3.90
2022-08-16T10:49:10.980Z,4.28
2022-08-16T10:52:03.239Z,4.78
2022-08-16T10:54:29.753Z,5.93
2022-08-16T10:57:06.138Z,4.82
2022-08-16T10:59:51.781Z,5.53
2022-08-16T11:02:58.320Z,5.00
2022-08-16T11:05:16.785Z,5.22
2022-08-16T11:07:52.237Z,4.18
2022-08-16T11:13:57.417Z,6.22
2022-08-16T11:19:05.663Z,4.38
2022-08-16T11:24:42.019Z,4.57
2022-08-16T11:27:23.211Z,4.40
2022-08-16T11:29:55.077Z,7.32
2022-08-16T11:32:31.594Z,5.43
2022-08-16T11:35:10.350Z,4.55
2022-08-16T11:40:40.629Z,4.53
2022-08-16T11:43:12.527Z,4.72
2022-08-16T11:45:42.621Z,5.25
2022-08-16T11:48:14.028Z,5.13
2022-08-16T11:50:43.887Z,7.05
2022-08-16T11:53:12.863Z,4.72
2022-08-16T11:55:44.154Z,4.85
2022-08-16T11:58:14.379Z,5.45
2022-08-16T12:00:50.599Z,4.95
2022-08-16T12:03:31.622Z,5.45
2022-08-16T12:06:11.225Z,5.78
2022-08-16T12:08:53.154Z,5.35
2022-08-16T12:11:21.817Z,5.85
2022-08-16T12:13:50.805Z,6.20
2022-08-16T12:16:20.737Z,6.22
2022-08-16T12:18:50.676Z,6.97
2022-08-16T12:21:19.683Z,7.65
2022-08-16T12:23:47.803Z,6.43
2022-08-16T12:26:17.242Z,4.93
2022-08-16T12:28:54.864Z,5.78
2022-08-16T12:31:26.057Z,7.28
2022-08-16T12:33:57.612Z,5.53
2022-08-16T12:36:29.748Z,5.60
2022-08-16T12:38:59.120Z,5.38
2022-08-16T12:41:27.477Z,5.05
2022-08-16T12:43:57.098Z,5.47
2022-08-16T12:46:29.107Z,4.20
2022-08-16T12:49:00.642Z,6.63
2022-08-16T12:51:57.976Z,4.43
2022-08-16T12:54:23.666Z,5.38
2022-08-16T12:56:51.711Z,4.00
2022-08-16T12:59:21.917Z,4.45
2022-08-16T13:01:55.365Z,5.35
2022-08-16T13:04:33.311Z,5.15
2022-08-16T13:09:42.575Z,6.28
2022-08-16T13:12:19.794Z,4.20
2022-08-16T13:14:50.116Z,4.78
2022-08-16T13:17:21.541Z,4.05
2022-08-16T13:20:09.423Z,5.55
2022-08-16T13:22:42.245Z,4.03
2022-08-16T13:25:18.908Z,4.00
2022-08-16T13:28:02.180Z,4.55
2022-08-16T13:30:41.265Z,4.05
2022-08-16T13:33:13.447Z,5.63
2022-08-16T13:35:56.082Z,3.83
2022-08-16T13:38:26.940Z,4.30
2022-08-16T13:40:57.789Z,4.47
2022-08-16T13:43:26.851Z,4.07
2022-08-16T13:45:56.280Z,5.05
2022-08-16T13:48:25.920Z,4.03
2022-08-16T13:50:58.711Z,4.03
2022-08-16T13:53:32.449Z,4.75
2022-08-16T13:56:00.698Z,5.50
2022-08-16T13:58:34.960Z,4.45
2022-08-16T14:01:09.458Z,5.72
2022-08-16T14:03:38.627Z,4.10
2022-08-16T14:06:10.513Z,5.25
2022-08-16T14:08:42.000Z,4.20
2022-08-16T14:11:12.199Z,5.25
2022-08-16T14:13:40.625Z,8.23
2022-08-16T14:16:12.738Z,4.35
2022-08-16T14:18:53.178Z,5.90
2022-08-16T14:21:24.057Z,6.32
2022-08-16T14:23:53.036Z,5.35
2022-08-16T14:26:21.472Z,5.25
2022-08-16T14:28:51.030Z,6.40
2022-08-16T14:31:20.053Z,6.25
2022-08-16T14:33:48.109Z,9.30
2022-08-16T14:36:18.840Z,5.70
2022-08-16T14:38:54.754Z,3.72
2022-08-16T14:41:22.788Z,7.07
2022-08-16T14:43:51.145Z,6.05
2022-08-16T14:46:19.321Z,10.98
2022-08-16T14:48:47.446Z,6.32
2022-08-16T14:51:15.877Z,6.32
2022-08-16T14:53:45.660Z,7.43
2022-08-16T14:56:39.114Z,10.43
2022-08-16T14:59:08.537Z,4.63
2022-08-16T15:01:57.591Z,5.22
2022-08-16T15:04:32.427Z,5.10
2022-08-16T15:07:10.168Z,4.72
2022-08-16T15:09:44.785Z,4.50
2022-08-16T15:12:34.206Z,5.18
2022-08-16T15:15:13.155Z,5.95
2022-08-16T15:17:55.998Z,6.32
2022-08-16T15:20:26.732Z,12.30
2022-08-16T15:22:55.371Z,8.10
2022-08-16T15:25:29.532Z,4.40
2022-08-16T15:28:00.811Z,5.63
2022-08-16T15:30:57.362Z,3.78
2022-08-16T15:33:21.699Z,6.00
2022-08-16T15:35:52.585Z,4.93
2022-08-16T15:38:55.117Z,6.47
2022-08-16T15:41:13.369Z,4.90
2022-08-16T15:43:42.883Z,5.07
2022-08-16T15:46:35.028Z,4.57
2022-08-16T15:49:12.361Z,5.40
2022-08-16T15:51:41.209Z,5.82
2022-08-16T15:54:29.236Z,4.78
2022-08-16T15:57:04.270Z,5.90
2022-08-16T15:59:49.043Z,4.90
2022-08-16T16:02:29.695Z,6.38
2022-08-16T16:05:01.826Z,5.15
2022-08-16T16:07:32.097Z,5.72
2022-08-16T16:10:03.087Z,5.22
2022-08-16T16:12:51.145Z,4.45
2022-08-16T16:15:22.851Z,4.93
2022-08-16T16:17:52.516Z,5.05
2022-08-16T16:20:22.080Z,6.43
2022-08-16T16:22:52.817Z,4.50
2022-08-16T16:25:21.207Z,4.53
2022-08-16T16:27:55.923Z,4.78
2022-08-16T16:30:33.101Z,5.53
2022-08-16T16:33:06.594Z,4.00
2022-08-16T16:35:36.277Z,3.85
2022-08-16T16:38:08.175Z,5.75
2022-08-16T16:40:46.618Z,5.03
2022-08-16T16:43:25.365Z,4.45
2022-08-16T16:45:55.635Z,4.90
2022-08-16T16:48:29.615Z,4.20
2022-08-16T16:51:09.119Z,4.38
2022-08-16T16:53:41.034Z,4.57
2022-08-16T16:56:19.615Z,6.53
2022-08-16T16:58:57.026Z,4.93
2022-08-16T17:01:51.063Z,4.05
2022-08-16T17:04:27.424Z,4.85
2022-08-16T17:07:00.489Z,6.38
2022-08-16T17:09:28.591Z,4.13
2022-08-16T17:11:58.281Z,4.68
2022-08-16T17:14:33.292Z,6.88
2022-08-16T17:17:06.687Z,4.35
2022-08-16T17:19:40.072Z,5.80
2022-08-16T17:22:14.912Z,5.10
2022-08-16T17:24:57.225Z,5.70
2022-08-16T17:27:32.696Z,4.45
2022-08-16T17:30:03.019Z,5.95
2022-08-16T17:32:47.856Z,5.00
2022-08-16T17:35:19.675Z,5.10
2022-08-16T17:37:50.838Z,4.05
2022-08-16T17:40:45.870Z,4.38
2022-08-16T17:43:13.315Z,4.32
2022-08-16T17:45:42.440Z,4.88
2022-08-16T17:48:12.210Z,4.60
2022-08-16T17:50:41.863Z,5.00
2022-08-16T17:53:11.162Z,4.25
2022-08-16T17:55:42.346Z,4.55
2022-08-16T17:58:22.854Z,8.48
2022-08-16T18:00:53.190Z,5.15
2022-08-16T18:04:07.946Z,6.00
2022-08-16T18:06:16.864Z,5.88
2022-08-16T18:08:48.361Z,6.47
2022-08-16T18:11:26.186Z,5.18
2022-08-16T18:13:56.459Z,4.35
2022-08-16T18:16:24.845Z,4.10
2022-08-16T18:18:54.552Z,4.50
2022-08-16T18:21:40.583Z,5.53
2022-08-16T18:24:09.614Z,4.40
2022-08-16T18:26:38.563Z,4.68
2022-08-16T18:29:07.215Z,5.28
2022-08-16T18:31:35.756Z,5.18
2022-08-16T18:34:05.985Z,4.35
2022-08-16T18:36:34.578Z,4.63
2022-08-16T18:39:02.963Z,4.85
2022-08-16T18:41:33.569Z,5.10
2022-08-16T18:44:26.668Z,4.78
2022-08-16T18:46:50.963Z,5.13
2022-08-16T18:49:20.978Z,6.25
2022-08-16T18:51:50.793Z,4.38
2022-08-16T18:54:19.263Z,5.75
2022-08-16T18:56:55.874Z,4.88
2022-08-16T18:59:25.860Z,5.05
2022-08-16T19:01:54.029Z,4.63
2022-08-16T19:04:47.411Z,5.00
2022-08-16T19:07:18.883Z,5.43
2022-08-16T19:09:46.970Z,6.68
2022-08-16T19:12:16.031Z,5.30
2022-08-16T19:14:45.478Z,5.85
2022-08-16T19:17:13.675Z,5.15
2022-08-16T19:19:43.021Z,5.22
2022-08-16T19:22:11.051Z,4.95
2022-08-16T19:24:39.539Z,5.40
2022-08-16T19:27:12.846Z,6.13
2022-08-16T19:29:40.858Z,5.30
2022-08-16T19:32:17.490Z,6.63
2022-08-16T19:34:46.910Z,5.22
2022-08-16T19:37:15.018Z,5.10
2022-08-16T19:39:43.435Z,5.38
2022-08-16T19:42:13.999Z,6.30
2022-08-16T19:44:42.377Z,5.22
2022-08-16T19:47:10.513Z,5.10
2022-08-16T19:49:38.856Z,6.07
2022-08-16T19:52:13.648Z,6.13
2022-08-16T19:54:41.752Z,7.32
2022-08-16T19:57:10.477Z,5.00
2022-08-16T19:59:40.369Z,4.97
2022-08-16T20:02:23.669Z,6.07
2022-08-16T20:05:06.329Z,5.35
2022-08-16T20:07:35.786Z,5.20
2022-08-16T20:10:03.845Z,4.97
2022-08-16T20:12:31.876Z,5.10
2022-08-16T20:15:00.267Z,5.10
2022-08-16T20:17:28.290Z,5.00
2022-08-16T20:19:56.271Z,6.05
2022-08-16T20:22:51.904Z,11.05
2022-08-16T20:25:19.101Z,5.43
2022-08-16T20:27:56.259Z,6.13
2022-08-16T20:30:24.656Z,5.30
2022-08-16T20:32:54.192Z,5.78
2022-08-16T20:35:28.680Z,5.05
2022-08-16T20:37:57.051Z,7.20
2022-08-16T20:40:34.703Z,6.35
2022-08-16T20:43:06.604Z,6.55
2022-08-16T20:45:35.370Z,6.53
2022-08-16T20:48:03.680Z,5.38
2022-08-16T20:50:32.056Z,5.80
2022-08-16T20:53:00.233Z,5.93
2022-08-16T20:55:29.988Z,5.72
2022-08-16T20:57:58.303Z,6.03
2022-08-16T21:00:26.470Z,6.03
2022-08-16T21:02:54.521Z,6.75
2022-08-16T21:05:24.686Z,7.75
2022-08-16T21:07:55.875Z,8.07
2022-08-16T21:10:24.763Z,7.28
2022-08-16T21:12:56.343Z,8.73
2022-08-16T21:15:27.082Z,6.60
2022-08-16T21:17:55.144Z,6.10
2022-08-16T21:20:26.096Z,6.38
2022-08-16T21:22:55.274Z,6.15
2022-08-16T21:25:24.761Z,6.40
2022-08-16T21:28:39.061Z,6.22
2022-08-16T21:30:43.172Z,10.05
2022-08-16T21:33:13.216Z,5.60
2022-08-16T21:35:43.319Z,6.00
2022-08-16T21:38:29.931Z,6.50
2022-08-16T21:40:58.613Z,6.32
2022-08-16T21:43:32.280Z,5.85
2022-08-16T21:46:01.254Z,6.43
2022-08-16T21:48:33.804Z,6.28
2022-08-16T21:51:02.784Z,5.95
2022-08-16T21:53:30.796Z,6.10
2022-08-16T21:55:59.977Z,6.10
2022-08-16T21:58:30.810Z,6.10
2022-08-16T22:00:59.036Z,5.85
2022-08-16T22:03:27.134Z,7.05
2022-08-16T22:06:11.534Z,6.32
2022-08-16T22:08:46.739Z,6.05
2022-08-16T22:11:19.550Z,5.85
2022-08-16T22:13:49.283Z,6.07
2022-08-16T22:16:27.020Z,6.13
2022-08-16T22:18:55.206Z,6.15
2022-08-16T22:21:23.259Z,6.93
2022-08-16T22:23:56.720Z,7.32
2022-08-16T22:26:30.386Z,6.22
2022-08-16T22:29:01.669Z,6.45
2022-08-16T22:31:30.175Z,6.80
2022-08-16T22:33:58.504Z,7.68
2022-08-16T22:36:29.025Z,6.28
2022-08-16T22:38:58.842Z,6.50
2022-08-16T22:41:28.256Z,6.25
2022-08-16T22:43:56.314Z,6.97
2022-08-16T22:46:25.847Z,6.63
2022-08-16T22:48:53.900Z,6.63
2022-08-16T22:51:23.583Z,6.90
2022-08-16T22:53:52.693Z,6.78
2022-08-16T22:56:21.009Z,6.28
2022-08-16T22:58:49.216Z,6.55
2022-08-16T23:01:18.808Z,6.28
2022-08-16T23:03:48.245Z,6.95
2022-08-16T23:06:17.529Z,6.70
2022-08-16T23:08:45.622Z,6.47
2022-08-16T23:11:21.193Z,7.28
2022-08-16T23:13:53.417Z,7.13
2022-08-16T23:16:25.095Z,6.57
2022-08-16T23:19:03.227Z,7.75
2022-08-16T23:21:31.955Z,6.72
2022-08-16T23:24:00.063Z,6.95
2022-08-16T23:26:44.354Z,8.57
2022-08-16T23:29:23.275Z,6.60
2022-08-16T23:31:53.844Z,6.57
2022-08-16T23:34:23.757Z,6.65
2022-08-16T23:36:51.894Z,6.85
2022-08-16T23:39:19.939Z,6.68
2022-08-16T23:41:47.993Z,7.22
2022-08-16T23:44:55.358Z,7.03
2022-08-16T23:47:06.049Z,6.88
2022-08-16T23:49:56.468Z,8.52
2022-08-16T23:52:42.124Z,6.97
2022-08-16T23:55:11.761Z,7.13
2022-08-16T23:57:39.789Z,9.70
